createdAt,value
2022-12-06T00:04:23.329Z,13.43
2022-12-06T00:09:28.311Z,11.98
2022-12-06T00:14:30.452Z,14.05
2022-12-06T00:19:32.169Z,12.70
2022-12-06T00:24:35.198Z,12.00
2022-12-06T00:29:37.437Z,13.05
2022-12-06T00:34:39.173Z,12.50
2022-12-06T00:39:40.871Z,13.68
2022-12-06T00:44:43.016Z,13.77
2022-12-06T00:49:45.139Z,18.33
2022-12-06T00:54:47.595Z,14.18
2022-12-06T00:59:49.390Z,13.15
2022-12-06T01:04:51.198Z,11.38
2022-12-06T01:09:52.932Z,13.73
2022-12-06T01:14:54.727Z,12.02
2022-12-06T01:19:56.643Z,14.35
2022-12-06T01:24:58.998Z,12.40
2022-12-06T01:30:00.970Z,14.40
2022-12-06T01:35:03.090Z,10.80
2022-12-06T01:40:05.369Z,9.65
2022-12-06T01:45:07.715Z,10.23
2022-12-06T01:50:26.403Z,10.93
2022-12-06T01:55:32.737Z,9.70
2022-12-06T02:00:35.487Z,9.80
2022-12-06T02:05:40.869Z,8.98
2022-12-06T02:10:42.879Z,8.50
2022-12-06T02:15:59.341Z,8.90
2022-12-06T02:21:18.962Z,8.90
2022-12-06T02:26:44.357Z,8.25
2022-12-06T02:32:06.643Z,8.43
2022-12-06T02:42:41.418Z,9.10
2022-12-06T02:47:44.667Z,10.65
2022-12-06T02:52:51.140Z,10.32
2022-12-06T02:57:54.849Z,9.48
2022-12-06T03:03:04.333Z,12.88
2022-12-06T03:08:17.476Z,10.55
2022-12-06T03:13:27.505Z,11.27
2022-12-06T03:18:35.080Z,10.07
2022-12-06T03:23:42.976Z,18.27
2022-12-06T03:28:46.843Z,14.07
2022-12-06T03:34:11.851Z,14.43
2022-12-06T03:39:19.630Z,13.20
2022-12-06T03:44:22.524Z,14.32
2022-12-06T03:49:33.158Z,13.05
2022-12-06T03:54:34.981Z,13.40
2022-12-06T03:59:37.155Z,9.43
2022-12-06T04:04:40.441Z,7.25
2022-12-06T04:10:03.404Z,7.30
2022-12-06T04:15:07.369Z,8.40
2022-12-06T04:20:09.252Z,8.77
2022-12-06T04:25:11.061Z,9.07
2022-12-06T04:30:31.323Z,8.77
2022-12-06T04:35:51.630Z,9.60
2022-12-06T04:40:53.397Z,8.82
2022-12-06T04:45:55.353Z,9.35
2022-12-06T04:50:57.161Z,10.50
2022-12-06T04:55:59.334Z,13.88
2022-12-06T05:01:01.662Z,11.70
2022-12-06T05:06:04.038Z,11.55
2022-12-06T05:11:06.050Z,9.05
2022-12-06T05:16:08.653Z,16.30
2022-12-06T05:21:16.598Z,24.98
2022-12-06T05:26:20.190Z,10.35
2022-12-06T05:31:22.881Z,19.60
2022-12-06T05:36:27.359Z,9.00
2022-12-06T05:41:29.506Z,9.82
2022-12-06T05:46:31.673Z,9.20
2022-12-06T05:51:33.820Z,9.05
2022-12-06T05:56:35.647Z,8.57
2022-12-06T06:01:37.697Z,8.27
2022-12-06T06:06:39.644Z,9.35
2022-12-06T06:11:41.345Z,10.15
2022-12-06T06:16:43.598Z,10.40
2022-12-06T06:21:47.118Z,8.77
2022-12-06T06:26:48.806Z,10.07
2022-12-06T06:31:50.614Z,10.73
2022-12-06T06:36:52.706Z,11.70
2022-12-06T06:41:54.545Z,10.40
2022-12-06T06:46:56.660Z,9.40
2022-12-06T06:51:58.366Z,9.75
2022-12-06T06:57:00.317Z,9.30
2022-12-06T07:02:02.175Z,10.85
2022-12-06T07:07:03.938Z,11.90
2022-12-06T07:12:05.897Z,9.75
2022-12-06T07:17:08.317Z,12.85
2022-12-06T07:22:10.551Z,13.43
2022-12-06T07:27:12.465Z,10.35
2022-12-06T07:32:14.370Z,10.52
2022-12-06T07:37:19.053Z,9.02
2022-12-06T07:42:39.383Z,10.30
2022-12-06T07:47:43.906Z,11.15
2022-12-06T07:52:47.328Z,10.77
2022-12-06T07:57:49.460Z,10.57
2022-12-06T08:02:51.241Z,12.43
2022-12-06T08:07:53.011Z,11.73
2022-12-06T08:12:54.800Z,10.70
2022-12-06T08:17:56.554Z,9.65
2022-12-06T08:22:58.701Z,10.98
2022-12-06T08:28:00.448Z,10.63
2022-12-06T08:33:02.595Z,11.70
2022-12-06T08:38:04.724Z,10.38
2022-12-06T08:43:06.492Z,10.27
2022-12-06T08:48:08.690Z,9.93
2022-12-06T08:53:10.485Z,9.70
2022-12-06T08:58:12.288Z,9.25
2022-12-06T09:03:14.603Z,8.43
2022-12-06T09:08:16.828Z,9.82
2022-12-06T09:13:18.628Z,9.10
2022-12-06T09:18:20.405Z,10.05
2022-12-06T09:23:22.120Z,11.50
2022-12-06T09:28:23.919Z,9.73
2022-12-06T09:33:25.739Z,9.30
2022-12-06T09:38:29.465Z,10.88
2022-12-06T09:43:31.615Z,11.38
2022-12-06T09:48:49.119Z,12.25
2022-12-06T09:54:09.774Z,16.58
2022-12-06T09:59:39.126Z,11.98
2022-12-06T10:05:01.086Z,13.10
2022-12-06T10:10:08.365Z,12.25
2022-12-06T10:15:19.155Z,11.90
2022-12-06T10:20:53.771Z,13.70
2022-12-06T10:26:07.645Z,12.90
2022-12-06T10:31:30.731Z,12.73
2022-12-06T10:36:44.786Z,12.10
2022-12-06T10:42:01.686Z,10.77
2022-12-06T10:47:20.984Z,11.65
2022-12-06T10:52:44.129Z,12.05
2022-12-06T10:58:01.415Z,10.38
2022-12-06T11:03:13.591Z,14.48
2022-12-06T11:08:25.756Z,9.50
2022-12-06T11:13:40.148Z,7.90
2022-12-06T11:18:42.356Z,7.10
2022-12-06T11:24:21.284Z,6.85
2022-12-06T11:29:23.425Z,6.50
2022-12-06T11:34:35.790Z,5.85
2022-12-06T11:39:38.917Z,6.75
2022-12-06T11:44:53.878Z,6.00
2022-12-06T11:50:00.398Z,3.95
2022-12-06T11:55:16.006Z,7.65
2022-12-06T12:00:23.784Z,3.20
2022-12-06T12:05:38.815Z,3.20
2022-12-06T12:10:58.406Z,3.97
2022-12-06T12:16:26.102Z,2.95
2022-12-06T12:21:33.370Z,2.45
2022-12-06T12:26:39.257Z,2.90
2022-12-06T12:31:59.627Z,2.90
2022-12-06T12:37:04.721Z,2.78
2022-12-06T12:42:36.607Z,3.33
2022-12-06T12:47:38.361Z,2.90
2022-12-06T12:52:41.602Z,4.00
2022-12-06T12:57:48.676Z,3.08
2022-12-06T13:03:14.084Z,4.97
2022-12-06T13:08:29.377Z,3.97
2022-12-06T13:13:39.985Z,6.95
2022-12-06T13:18:48.546Z,4.40
2022-12-06T13:24:07.590Z,4.10
2022-12-06T13:29:39.563Z,4.65
2022-12-06T13:34:51.313Z,5.88
2022-12-06T13:39:53.202Z,4.65
2022-12-06T13:44:59.380Z,4.80
2022-12-06T13:50:04.792Z,4.82
2022-12-06T13:55:25.196Z,4.72
2022-12-06T14:00:30.043Z,4.15
2022-12-06T14:06:14.927Z,4.05
2022-12-06T14:11:20.885Z,4.63
2022-12-06T14:16:26.800Z,4.57
2022-12-06T14:21:37.849Z,7.43
2022-12-06T14:26:39.740Z,7.88
2022-12-06T14:31:41.607Z,16.33
2022-12-06T14:36:43.590Z,5.07
2022-12-06T14:42:13.707Z,6.97
2022-12-06T14:47:17.515Z,7.90
2022-12-06T14:52:29.745Z,7.80
2022-12-06T14:57:35.998Z,10.70
2022-12-06T15:02:40.679Z,6.90
2022-12-06T15:07:43.573Z,7.28
2022-12-06T15:12:57.545Z,9.10
2022-12-06T15:18:22.024Z,9.50
2022-12-06T15:23:26.514Z,12.07
2022-12-06T15:28:28.330Z,10.07
2022-12-06T15:33:30.512Z,13.95
2022-12-06T15:38:32.650Z,8.10
2022-12-06T15:43:35.013Z,7.60
2022-12-06T15:48:37.617Z,8.15
2022-12-06T15:53:39.360Z,13.57
2022-12-06T15:58:42.438Z,7.60
2022-12-06T16:03:44.328Z,8.38
2022-12-06T16:08:46.495Z,8.35
2022-12-06T16:13:48.792Z,13.90
2022-12-06T16:18:51.106Z,8.88
2022-12-06T16:24:13.468Z,9.38
2022-12-06T16:29:23.159Z,8.57
2022-12-06T16:34:25.243Z,12.43
2022-12-06T16:39:28.803Z,14.30
2022-12-06T16:44:30.979Z,16.88
2022-12-06T16:49:49.494Z,17.38
2022-12-06T16:54:51.440Z,19.20
2022-12-06T16:59:54.045Z,20.02
2022-12-06T17:04:57.003Z,11.20
2022-12-06T17:09:59.190Z,10.00
2022-12-06T17:15:01.327Z,11.10
2022-12-06T17:20:03.585Z,8.70
2022-12-06T17:25:06.455Z,12.82
2022-12-06T17:30:14.325Z,9.70
2022-12-06T17:35:16.214Z,10.25
2022-12-06T17:40:19.133Z,10.82
2022-12-06T17:45:24.763Z,8.65
2022-12-06T17:50:26.842Z,8.75
2022-12-06T17:55:28.636Z,8.32
2022-12-06T18:00:30.373Z,7.10
2022-12-06T18:05:33.395Z,7.95
2022-12-06T18:10:35.217Z,8.38
2022-12-06T18:15:40.780Z,6.80
2022-12-06T18:20:43.917Z,7.18
2022-12-06T18:25:45.716Z,7.85
2022-12-06T18:30:47.476Z,9.20
2022-12-06T18:35:53.656Z,9.65
2022-12-06T18:41:03.503Z,9.63
2022-12-06T18:46:08.728Z,12.27
2022-12-06T18:51:13.997Z,10.55
2022-12-06T18:56:18.115Z,8.05
2022-12-06T19:01:23.501Z,8.23
2022-12-06T19:06:27.856Z,7.70
2022-12-06T19:11:29.956Z,7.53
2022-12-06T19:16:40.883Z,6.30
2022-12-06T19:21:43.844Z,6.20
2022-12-06T19:26:46.295Z,7.03
2022-12-06T19:31:48.848Z,6.60
2022-12-06T19:36:52.392Z,7.30
2022-12-06T19:42:12.710Z,8.45
2022-12-06T19:47:14.616Z,7.75
2022-12-06T19:52:16.418Z,9.00
2022-12-06T19:57:18.187Z,12.48
2022-12-06T20:02:19.974Z,10.93
2022-12-06T20:07:22.212Z,8.02
2022-12-06T20:12:24.157Z,8.25
2022-12-06T20:17:25.884Z,7.22
2022-12-06T20:22:27.717Z,6.80
2022-12-06T20:27:48.410Z,6.72
2022-12-06T20:32:50.349Z,8.35
2022-12-06T20:37:52.107Z,8.32
2022-12-06T20:42:53.984Z,10.70
2022-12-06T20:47:55.755Z,10.52
2022-12-06T20:52:57.499Z,12.45
2022-12-06T20:57:59.237Z,10.30
2022-12-06T21:03:01.012Z,9.30
2022-12-06T21:08:02.853Z,8.82
2022-12-06T21:13:06.309Z,7.15
2022-12-06T21:18:08.181Z,7.25
2022-12-06T21:23:10.293Z,6.70
2022-12-06T21:28:12.677Z,9.15
2022-12-06T21:33:14.811Z,6.18
2022-12-06T21:38:17.706Z,9.00
2022-12-06T21:43:19.402Z,6.93
2022-12-06T21:48:21.106Z,7.18
2022-12-06T21:53:23.231Z,7.40
2022-12-06T21:58:25.468Z,7.10
2022-12-06T22:03:27.664Z,7.32
2022-12-06T22:08:29.794Z,6.68
2022-12-06T22:13:31.903Z,6.20
2022-12-06T22:18:36.142Z,5.78
2022-12-06T22:23:40.644Z,8.90
2022-12-06T22:28:42.455Z,6.75
2022-12-06T22:33:44.941Z,6.10
2022-12-06T22:38:51.518Z,6.38
2022-12-06T22:43:58.770Z,6.70
2022-12-06T22:49:02.055Z,6.70
2022-12-06T22:54:05.715Z,7.13
2022-12-06T22:59:09.088Z,6.40
2022-12-06T23:04:12.178Z,6.72
2022-12-06T23:09:16.675Z,6.90
2022-12-06T23:14:18.471Z,7.03
2022-12-06T23:19:20.279Z,7.80
2022-12-06T23:24:22.019Z,6.53
2022-12-06T23:29:23.748Z,6.10
2022-12-06T23:34:26.770Z,5.88
2022-12-06T23:39:28.636Z,5.97
2022-12-06T23:44:30.344Z,6.20
2022-12-06T23:49:32.088Z,5.95
2022-12-06T23:54:33.778Z,6.18
2022-12-06T23:59:35.529Z,5.72
